createdAt,value
2019-02-21T00:02:25.831Z,5.20
2019-02-21T00:04:55.284Z,5.20
2019-02-21T00:07:24.524Z,5.10
2019-02-21T00:09:54.036Z,5.10
2019-02-21T00:12:23.365Z,5.10
2019-02-21T00:14:52.802Z,5.00
2019-02-21T00:17:22.344Z,5.00
2019-02-21T00:19:51.646Z,5.00
2019-02-21T00:22:21.158Z,4.90
2019-02-21T00:24:50.517Z,4.90
2019-02-21T00:27:19.822Z,4.90
2019-02-21T00:29:49.335Z,4.90
2019-02-21T00:32:19.562Z,4.80
2019-02-21T00:34:49.029Z,4.70
2019-02-21T00:37:18.385Z,4.60
2019-02-21T00:39:47.778Z,4.50
2019-02-21T00:42:17.176Z,4.50
2019-02-21T00:44:47.068Z,4.40
2019-02-21T00:47:16.414Z,4.40
2019-02-21T00:49:45.965Z,4.40
2019-02-21T00:52:15.602Z,4.40
2019-02-21T00:54:45.049Z,4.40
2019-02-21T00:57:14.439Z,4.40
2019-02-21T00:59:45.354Z,4.50
2019-02-21T01:02:14.667Z,4.50
2019-02-21T01:04:44.423Z,4.50
2019-02-21T01:07:13.723Z,4.50
2019-02-21T01:09:46.270Z,4.50
2019-02-21T01:12:15.554Z,4.50
2019-02-21T01:14:44.970Z,4.50
2019-02-21T01:17:14.591Z,4.50
2019-02-21T01:19:44.049Z,4.50
2019-02-21T01:22:13.507Z,4.50
2019-02-21T01:24:42.790Z,4.50
2019-02-21T01:27:12.347Z,4.50
2019-02-21T01:29:41.629Z,4.50
2019-02-21T01:32:11.997Z,4.40
2019-02-21T01:34:41.517Z,4.40
2019-02-21T01:37:11.042Z,4.40
2019-02-21T01:39:40.274Z,4.40
2019-02-21T01:42:09.811Z,4.40
2019-02-21T01:44:40.016Z,4.40
2019-02-21T01:47:09.534Z,4.30
2019-02-21T01:49:39.489Z,4.30
2019-02-21T01:52:10.232Z,4.20
2019-02-21T01:54:39.664Z,4.20
2019-02-21T01:57:09.214Z,4.10
2019-02-21T01:59:40.612Z,4.10
2019-02-21T02:02:09.986Z,4.10
2019-02-21T02:04:39.359Z,4.00
2019-02-21T02:07:10.162Z,4.00
2019-02-21T02:09:41.797Z,4.10
2019-02-21T02:12:13.574Z,4.10
2019-02-21T02:14:53.078Z,4.10
2019-02-21T02:17:22.515Z,4.00
2019-02-21T02:19:51.781Z,4.00
2019-02-21T02:22:21.183Z,3.90
2019-02-21T02:24:52.023Z,3.90
2019-02-21T02:27:21.424Z,3.80
2019-02-21T02:29:50.883Z,3.80
2019-02-21T02:32:20.484Z,3.80
2019-02-21T02:34:49.783Z,3.70
2019-02-21T02:37:19.332Z,3.70
2019-02-21T02:39:51.353Z,3.70
2019-02-21T02:42:21.753Z,3.60
2019-02-21T02:44:51.112Z,3.60
2019-02-21T02:47:20.591Z,3.60
2019-02-21T02:49:50.050Z,3.50
2019-02-21T02:52:19.549Z,3.50
2019-02-21T02:54:48.950Z,3.50
2019-02-21T02:57:19.497Z,3.50
2019-02-21T02:59:48.984Z,3.40
2019-02-21T03:02:18.518Z,3.40
2019-02-21T03:04:47.860Z,3.30
2019-02-21T03:07:17.529Z,3.30
2019-02-21T03:09:46.819Z,3.20
2019-02-21T03:12:16.270Z,3.20
2019-02-21T03:14:45.552Z,3.20
2019-02-21T03:17:14.866Z,3.20
2019-02-21T03:19:44.617Z,3.20
2019-02-21T03:22:14.112Z,3.20
2019-02-21T03:24:43.473Z,3.10
2019-02-21T03:27:12.842Z,3.10
2019-02-21T03:29:42.317Z,3.10
2019-02-21T03:32:11.589Z,3.10
2019-02-21T03:34:40.932Z,3.10
2019-02-21T03:37:10.287Z,3.10
2019-02-21T03:39:39.705Z,3.10
2019-02-21T03:42:09.283Z,3.10
2019-02-21T03:44:39.751Z,3.10
2019-02-21T03:47:09.066Z,3.10
2019-02-21T03:49:38.445Z,3.10
2019-02-21T03:52:07.721Z,3.10
2019-02-21T03:54:37.351Z,3.10
2019-02-21T03:57:06.944Z,3.10
2019-02-21T03:59:37.391Z,3.10
2019-02-21T04:02:06.786Z,3.10
2019-02-21T04:04:36.175Z,3.10
2019-02-21T04:07:05.554Z,3.20
2019-02-21T04:09:35.160Z,3.20
2019-02-21T04:12:04.459Z,3.30
2019-02-21T04:14:34.252Z,3.40
2019-02-21T04:17:03.554Z,3.40
2019-02-21T04:19:32.809Z,3.40
2019-02-21T04:22:02.257Z,3.40
2019-02-21T04:24:31.538Z,3.40
2019-02-21T04:27:02.723Z,3.40
2019-02-21T04:29:33.958Z,3.40
2019-02-21T04:32:03.386Z,3.40
2019-02-21T04:34:32.709Z,3.40
2019-02-21T04:37:02.216Z,3.40
2019-02-21T04:39:31.448Z,3.50
2019-02-21T04:42:00.935Z,3.50
2019-02-21T04:44:30.241Z,3.50
2019-02-21T04:46:59.701Z,3.50
2019-02-21T04:49:29.040Z,3.50
2019-02-21T04:51:58.340Z,3.50
2019-02-21T04:54:27.796Z,3.60
2019-02-21T04:56:57.185Z,3.60
2019-02-21T04:59:26.977Z,3.60
2019-02-21T05:01:56.307Z,3.60
2019-02-21T05:04:25.748Z,3.70
2019-02-21T05:06:55.113Z,3.70
2019-02-21T05:09:26.973Z,3.80
2019-02-21T05:11:55.601Z,3.80
2019-02-21T05:14:25.084Z,3.80
2019-02-21T05:16:54.468Z,3.80
2019-02-21T05:19:23.766Z,3.90
2019-02-21T05:21:53.125Z,3.90
2019-02-21T05:24:22.562Z,3.90
2019-02-21T05:26:55.711Z,3.90
2019-02-21T05:29:25.031Z,3.90
2019-02-21T05:32:14.528Z,3.90
2019-02-21T05:34:49.268Z,3.90
2019-02-21T05:37:43.117Z,3.90
2019-02-21T05:40:31.382Z,3.90
2019-02-21T05:43:21.652Z,4.00
2019-02-21T05:46:05.712Z,3.90
2019-02-21T05:49:00.102Z,4.00
2019-02-21T05:51:37.603Z,4.10
2019-02-21T05:54:15.585Z,4.10
2019-02-21T05:56:52.573Z,4.20
2019-02-21T05:59:41.949Z,4.20
2019-02-21T06:02:17.782Z,4.30
2019-02-21T06:04:57.740Z,4.40
2019-02-21T06:07:32.918Z,4.50
2019-02-21T06:10:37.244Z,4.60
2019-02-21T06:13:25.721Z,4.70
2019-02-21T06:16:14.205Z,4.80
2019-02-21T06:19:11.332Z,4.90
2019-02-21T06:22:12.057Z,5.00
2019-02-21T06:24:47.599Z,5.00
2019-02-21T06:27:48.835Z,5.10
2019-02-21T06:30:25.592Z,5.10
2019-02-21T06:33:04.498Z,5.20
2019-02-21T06:35:25.856Z,5.20
2019-02-21T06:37:55.380Z,5.20
2019-02-21T06:40:24.781Z,5.20
2019-02-21T06:42:54.825Z,5.30
2019-02-21T06:45:24.390Z,5.40
2019-02-21T06:47:53.705Z,5.50
2019-02-21T06:50:26.705Z,5.60
2019-02-21T06:52:54.219Z,5.70
2019-02-21T06:55:25.616Z,5.80
2019-02-21T06:57:55.278Z,5.90
2019-02-21T07:00:24.717Z,6.00
2019-02-21T07:02:54.481Z,6.10
2019-02-21T07:05:24.020Z,6.20
2019-02-21T07:07:53.410Z,6.30
2019-02-21T07:10:23.204Z,6.40
2019-02-21T07:12:52.497Z,6.50
2019-02-21T07:15:22.869Z,6.70
2019-02-21T07:17:52.447Z,7.00
2019-02-21T07:20:23.769Z,7.20
2019-02-21T07:22:53.148Z,7.50
2019-02-21T07:25:32.585Z,7.60
2019-02-21T07:28:11.371Z,7.70
2019-02-21T07:30:35.504Z,7.80
2019-02-21T07:33:28.442Z,8.00
2019-02-21T07:35:51.089Z,8.00
2019-02-21T07:38:20.478Z,8.10
2019-02-21T07:40:50.291Z,8.20
2019-02-21T07:43:20.642Z,8.10
2019-02-21T07:45:50.286Z,8.10
2019-02-21T07:48:19.553Z,8.10
2019-02-21T07:50:49.106Z,8.10
2019-02-21T07:53:18.382Z,8.20
2019-02-21T07:55:47.839Z,8.30
2019-02-21T07:58:17.210Z,8.40
2019-02-21T08:00:47.725Z,8.50
2019-02-21T08:03:29.476Z,8.60
2019-02-21T08:05:48.385Z,8.70
2019-02-21T08:08:25.472Z,8.80
2019-02-21T08:10:54.900Z,8.90
2019-02-21T08:13:24.564Z,9.00
2019-02-21T08:15:54.167Z,9.10
2019-02-21T08:18:23.513Z,9.30
2019-02-21T08:20:53.138Z,9.50
2019-02-21T08:23:22.464Z,9.70
2019-02-21T08:25:51.973Z,9.90
2019-02-21T08:28:21.283Z,10.10
2019-02-21T08:30:50.886Z,10.30
2019-02-21T08:33:57.631Z,10.40
2019-02-21T08:36:17.056Z,10.40
2019-02-21T08:38:46.721Z,10.50
2019-02-21T08:41:16.214Z,10.60
2019-02-21T08:43:45.489Z,10.60
2019-02-21T08:46:14.942Z,10.80
2019-02-21T08:48:47.935Z,11.00
2019-02-21T08:51:18.511Z,11.50
2019-02-21T08:53:48.490Z,11.90
2019-02-21T08:56:17.920Z,12.60
2019-02-21T08:58:47.189Z,13.30
2019-02-21T09:01:19.258Z,14.20
2019-02-21T09:03:48.539Z,15.00
2019-02-21T09:06:17.945Z,15.40
2019-02-21T09:08:49.606Z,16.10
2019-02-21T09:11:19.840Z,16.70
2019-02-21T09:13:49.317Z,17.10
2019-02-21T09:16:18.854Z,17.70
2019-02-21T09:18:50.104Z,18.20
2019-02-21T09:21:19.472Z,18.00
2019-02-21T09:23:48.811Z,18.30
2019-02-21T09:26:18.419Z,18.80
2019-02-21T09:28:48.904Z,18.90
2019-02-21T09:31:18.386Z,18.80
2019-02-21T09:33:47.771Z,18.90
2019-02-21T09:36:17.119Z,18.50
2019-02-21T09:38:47.003Z,18.30
2019-02-21T09:41:16.532Z,18.50
2019-02-21T09:43:45.796Z,18.70
2019-02-21T09:46:15.186Z,18.80
2019-02-21T09:48:44.469Z,18.40
2019-02-21T09:51:14.361Z,18.10
2019-02-21T09:53:43.803Z,18.00
2019-02-21T09:56:13.103Z,17.80
2019-02-21T09:58:46.074Z,18.00
2019-02-21T10:01:20.667Z,18.10
2019-02-21T10:03:50.583Z,18.30
2019-02-21T10:06:20.157Z,18.80
2019-02-21T10:08:50.242Z,18.50
2019-02-21T10:11:19.649Z,19.00
2019-02-21T10:13:51.857Z,18.80
2019-02-21T10:16:21.258Z,19.00
2019-02-21T10:18:50.680Z,18.40
2019-02-21T10:21:20.439Z,18.40
2019-02-21T10:23:49.984Z,18.20
2019-02-21T10:26:19.290Z,17.90
2019-02-21T10:28:48.890Z,17.60
2019-02-21T10:31:18.356Z,17.10
2019-02-21T10:33:47.617Z,16.80
2019-02-21T10:36:17.095Z,16.20
2019-02-21T10:38:46.671Z,16.40
2019-02-21T10:41:16.019Z,16.30
2019-02-21T10:43:47.903Z,16.50
2019-02-21T10:46:18.803Z,16.80
2019-02-21T10:48:48.999Z,16.90
2019-02-21T10:51:20.733Z,16.70
2019-02-21T10:53:50.005Z,16.60
2019-02-21T10:56:19.453Z,16.80
2019-02-21T10:58:48.790Z,16.90
2019-02-21T11:01:18.481Z,17.00
2019-02-21T11:03:49.266Z,17.20
2019-02-21T11:06:18.733Z,17.50
2019-02-21T11:08:48.016Z,17.30
2019-02-21T11:11:17.574Z,17.20
2019-02-21T11:13:47.815Z,17.20
2019-02-21T11:16:19.897Z,17.20
2019-02-21T11:18:49.218Z,17.30
2019-02-21T11:21:18.809Z,17.60
2019-02-21T11:23:48.174Z,17.70
2019-02-21T11:26:17.558Z,17.60
2019-02-21T11:28:47.355Z,17.60
2019-02-21T11:31:16.738Z,17.60
2019-02-21T11:33:46.281Z,17.60
2019-02-21T11:36:15.841Z,17.20
2019-02-21T11:38:47.137Z,16.60
2019-02-21T11:41:16.495Z,16.20
2019-02-21T11:43:47.125Z,16.00
2019-02-21T11:46:19.777Z,16.50
2019-02-21T11:48:49.042Z,16.50
2019-02-21T11:51:18.949Z,16.70
2019-02-21T11:53:48.309Z,16.70
2019-02-21T11:56:17.684Z,16.40
2019-02-21T11:58:46.952Z,16.20
2019-02-21T12:01:16.423Z,16.30
2019-02-21T12:03:46.044Z,16.10
2019-02-21T12:06:15.309Z,15.60
2019-02-21T12:08:44.889Z,15.20
2019-02-21T12:11:14.543Z,15.10
2019-02-21T12:13:44.021Z,15.00
2019-02-21T12:16:13.354Z,14.70
2019-02-21T12:18:43.423Z,14.40
2019-02-21T12:21:15.649Z,14.30
2019-02-21T12:23:45.287Z,14.20
2019-02-21T12:26:14.891Z,14.30
2019-02-21T12:28:44.295Z,14.40
2019-02-21T12:31:13.659Z,14.40
2019-02-21T12:33:43.854Z,14.40
2019-02-21T12:36:20.013Z,14.50
2019-02-21T12:39:00.736Z,14.70
2019-02-21T12:41:30.157Z,14.80
2019-02-21T12:44:01.522Z,14.90
2019-02-21T12:46:41.155Z,14.80
2019-02-21T12:49:14.449Z,14.80
2019-02-21T12:51:46.075Z,14.60
2019-02-21T12:54:15.390Z,14.60
2019-02-21T12:56:44.823Z,14.60
2019-02-21T12:59:16.450Z,14.70
2019-02-21T13:01:48.116Z,14.60
2019-02-21T13:04:19.103Z,14.80
2019-02-21T13:06:48.717Z,15.00
2019-02-21T13:09:18.548Z,14.90
2019-02-21T13:11:48.049Z,15.10
2019-02-21T13:14:17.432Z,15.30
2019-02-21T13:16:47.482Z,15.60
2019-02-21T13:19:16.947Z,15.70
2019-02-21T13:21:47.146Z,15.70
2019-02-21T13:24:20.644Z,15.70
2019-02-21T13:26:51.295Z,15.60
2019-02-21T13:29:20.716Z,15.50
2019-02-21T13:31:51.218Z,15.50
2019-02-21T13:34:23.649Z,15.60
2019-02-21T13:37:06.414Z,15.80
2019-02-21T13:39:36.840Z,15.70
2019-02-21T13:42:06.972Z,15.70
2019-02-21T13:44:38.524Z,15.60
2019-02-21T13:47:12.358Z,15.70
2019-02-21T13:49:42.004Z,15.90
2019-02-21T13:52:12.426Z,15.80
2019-02-21T13:54:42.119Z,15.60
2019-02-21T13:57:14.873Z,15.30
2019-02-21T13:59:45.846Z,15.00
2019-02-21T14:02:15.766Z,14.70
2019-02-21T14:04:45.583Z,14.70
2019-02-21T14:07:16.886Z,14.70
2019-02-21T14:09:46.254Z,14.70
2019-02-21T14:12:16.370Z,14.60
2019-02-21T14:14:46.736Z,14.40
2019-02-21T14:17:16.106Z,14.10
2019-02-21T14:19:53.067Z,14.00
2019-02-21T14:22:22.717Z,13.80
2019-02-21T14:24:52.642Z,13.80
2019-02-21T14:27:22.030Z,13.60
2019-02-21T14:29:56.248Z,13.50
2019-02-21T14:32:27.138Z,13.50
2019-02-21T14:34:58.510Z,13.50
2019-02-21T14:37:29.483Z,13.50
2019-02-21T14:40:09.561Z,13.50
2019-02-21T14:42:39.090Z,13.50
2019-02-21T14:45:12.308Z,13.50
2019-02-21T14:47:42.481Z,13.40
2019-02-21T14:50:18.080Z,13.30
2019-02-21T14:52:50.314Z,13.30
2019-02-21T14:55:20.843Z,13.20
2019-02-21T14:57:52.930Z,13.20
2019-02-21T15:00:26.455Z,13.10
2019-02-21T15:02:59.354Z,13.10
2019-02-21T15:05:39.051Z,13.10
2019-02-21T15:08:08.795Z,13.10
2019-02-21T15:10:40.590Z,13.00
2019-02-21T15:13:14.550Z,13.00
2019-02-21T15:15:41.853Z,12.90
2019-02-21T15:18:11.449Z,12.90
2019-02-21T15:20:43.619Z,12.80
2019-02-21T15:23:13.893Z,12.80
2019-02-21T15:25:43.382Z,12.80
2019-02-21T15:28:12.641Z,12.70
2019-02-21T15:30:43.135Z,12.60
2019-02-21T15:33:13.321Z,12.60
2019-02-21T15:35:43.149Z,12.50
2019-02-21T15:38:20.027Z,12.40
2019-02-21T15:40:49.730Z,12.30
2019-02-21T15:43:20.434Z,12.30
2019-02-21T15:45:49.893Z,12.20
2019-02-21T15:48:20.150Z,12.20
2019-02-21T15:50:50.434Z,12.20
2019-02-21T15:53:19.929Z,12.20
2019-02-21T15:55:49.205Z,12.20
2019-02-21T15:58:19.476Z,12.10
2019-02-21T16:00:51.476Z,12.10
2019-02-21T16:03:21.505Z,12.10
2019-02-21T16:05:51.014Z,12.10
2019-02-21T16:08:20.311Z,12.00
2019-02-21T16:10:50.391Z,12.00
2019-02-21T16:13:24.881Z,11.90
2019-02-21T16:15:55.077Z,11.80
2019-02-21T16:18:26.441Z,11.80
2019-02-21T16:20:57.554Z,11.70
2019-02-21T16:23:29.359Z,11.70
2019-02-21T16:25:58.924Z,11.60
2019-02-21T16:28:30.698Z,11.60
2019-02-21T16:31:04.794Z,11.50
2019-02-21T16:33:34.206Z,11.50
2019-02-21T16:36:08.078Z,11.40
2019-02-21T16:38:37.495Z,11.40
2019-02-21T16:41:16.298Z,11.40
2019-02-21T16:43:46.408Z,11.40
2019-02-21T16:46:30.090Z,11.40
2019-02-21T16:48:59.744Z,11.40
2019-02-21T16:51:49.420Z,11.30
2019-02-21T16:54:18.981Z,11.30
2019-02-21T16:56:59.006Z,11.30
2019-02-21T16:59:28.642Z,11.20
2019-02-21T17:02:01.062Z,11.20
2019-02-21T17:04:30.405Z,11.10
2019-02-21T17:06:59.811Z,11.10
2019-02-21T17:09:29.162Z,11.10
2019-02-21T17:12:01.439Z,11.10
2019-02-21T17:14:33.632Z,11.10
2019-02-21T17:17:02.989Z,11.00
2019-02-21T17:19:32.362Z,11.00
2019-02-21T17:22:05.441Z,11.00
2019-02-21T17:24:35.787Z,11.00
2019-02-21T17:27:05.092Z,11.00
2019-02-21T17:29:35.537Z,10.90
2019-02-21T17:32:05.739Z,10.90
2019-02-21T17:34:37.196Z,10.90
2019-02-21T17:37:06.880Z,10.90
2019-02-21T17:39:38.807Z,10.90
2019-02-21T17:42:09.271Z,10.90
2019-02-21T17:44:38.518Z,10.90
2019-02-21T17:47:08.076Z,10.90
2019-02-21T17:49:38.401Z,10.90
2019-02-21T17:52:10.446Z,10.80
2019-02-21T17:54:40.994Z,10.80
2019-02-21T17:57:10.526Z,10.80
2019-02-21T17:59:39.828Z,10.80
2019-02-21T18:02:09.951Z,10.70
2019-02-21T18:04:39.525Z,10.70
2019-02-21T18:07:14.251Z,10.70
2019-02-21T18:09:43.552Z,10.60
2019-02-21T18:12:13.533Z,10.70
2019-02-21T18:14:43.260Z,10.70
2019-02-21T18:17:13.879Z,10.60
2019-02-21T18:19:45.745Z,10.70
2019-02-21T18:22:15.356Z,10.70
2019-02-21T18:24:45.474Z,10.70
2019-02-21T18:27:15.310Z,10.70
2019-02-21T18:29:44.587Z,10.60
2019-02-21T18:32:17.056Z,10.60
2019-02-21T18:34:46.770Z,10.70
2019-02-21T18:37:16.265Z,10.70
2019-02-21T18:39:49.684Z,10.70
2019-02-21T18:42:19.218Z,10.70
2019-02-21T18:44:51.684Z,10.70
2019-02-21T18:47:21.082Z,10.70
2019-02-21T18:49:50.812Z,10.70
2019-02-21T18:52:21.808Z,10.70
2019-02-21T18:54:51.176Z,10.70
2019-02-21T18:57:21.157Z,10.70
2019-02-21T18:59:50.413Z,10.60
2019-02-21T19:02:23.676Z,10.60
2019-02-21T19:04:54.666Z,10.60
2019-02-21T19:07:24.214Z,10.60
2019-02-21T19:09:53.696Z,10.60
2019-02-21T19:12:23.205Z,10.60
2019-02-21T19:14:52.908Z,10.60
2019-02-21T19:17:22.743Z,10.50
2019-02-21T19:19:52.178Z,10.50
2019-02-21T19:22:21.465Z,10.60
2019-02-21T19:24:51.038Z,10.50
2019-02-21T19:27:20.298Z,10.50
2019-02-21T19:29:50.654Z,10.50
2019-02-21T19:32:20.060Z,10.50
2019-02-21T19:34:49.949Z,10.50
2019-02-21T19:37:19.796Z,10.50
2019-02-21T19:39:49.224Z,10.50
2019-02-21T19:42:20.027Z,10.50
2019-02-21T19:44:49.430Z,10.50
2019-02-21T19:47:20.521Z,10.50
2019-02-21T19:49:51.769Z,10.50
2019-02-21T19:52:22.081Z,10.50
2019-02-21T19:54:51.488Z,10.50
2019-02-21T19:57:22.796Z,10.50
2019-02-21T19:59:52.493Z,10.50
2019-02-21T20:02:22.251Z,10.50
2019-02-21T20:04:51.823Z,10.50
2019-02-21T20:07:21.262Z,10.50
2019-02-21T20:09:50.937Z,10.60
2019-02-21T20:12:20.406Z,10.50
2019-02-21T20:14:50.008Z,10.50
2019-02-21T20:17:19.570Z,10.50
2019-02-21T20:19:49.032Z,10.60
2019-02-21T20:22:19.286Z,10.60
2019-02-21T20:24:48.716Z,10.60
2019-02-21T20:27:18.433Z,10.50
2019-02-21T20:29:49.820Z,10.50
2019-02-21T20:32:20.506Z,10.50
2019-02-21T20:34:51.713Z,10.50
2019-02-21T20:37:21.288Z,10.40
2019-02-21T20:39:50.773Z,10.40
2019-02-21T20:42:20.459Z,10.30
2019-02-21T20:44:49.862Z,10.20
2019-02-21T20:47:19.571Z,10.10
2019-02-21T20:49:49.109Z,10.10
2019-02-21T20:52:18.629Z,10.10
2019-02-21T20:54:48.123Z,10.10
2019-02-21T20:57:17.714Z,10.10
2019-02-21T20:59:47.002Z,10.10
2019-02-21T21:02:17.480Z,10.10
2019-02-21T21:04:46.812Z,10.10
2019-02-21T21:07:24.739Z,10.20
2019-02-21T21:09:47.272Z,10.20
2019-02-21T21:12:17.421Z,10.20
2019-02-21T21:14:48.859Z,10.20
2019-02-21T21:17:18.149Z,10.20
2019-02-21T21:19:49.562Z,10.20
2019-02-21T21:22:18.484Z,10.20
2019-02-21T21:24:48.693Z,10.20
2019-02-21T21:27:18.068Z,10.20
2019-02-21T21:29:47.450Z,10.20
2019-02-21T21:32:16.866Z,10.30
2019-02-21T21:34:46.167Z,10.20
2019-02-21T21:37:15.589Z,10.20
2019-02-21T21:39:44.910Z,10.20
2019-02-21T21:42:14.337Z,10.20
2019-02-21T21:44:43.727Z,10.20
2019-02-21T21:47:13.154Z,10.20
2019-02-21T21:49:42.532Z,10.20
2019-02-21T21:52:11.972Z,10.20
2019-02-21T21:54:41.269Z,10.20
2019-02-21T21:57:11.145Z,10.20
2019-02-21T21:59:40.449Z,10.20
2019-02-21T22:02:09.711Z,10.20
2019-02-21T22:04:39.355Z,10.20
2019-02-21T22:07:09.292Z,10.20
2019-02-21T22:09:38.750Z,10.20
2019-02-21T22:12:09.300Z,10.20
2019-02-21T22:14:38.850Z,10.20
2019-02-21T22:17:08.110Z,10.20
2019-02-21T22:19:37.750Z,10.20
2019-02-21T22:22:07.116Z,10.10
2019-02-21T22:24:36.431Z,10.10
2019-02-21T22:27:05.727Z,10.20
2019-02-21T22:29:35.217Z,10.10
2019-02-21T22:32:04.668Z,10.10
2019-02-21T22:34:34.085Z,10.10
2019-02-21T22:37:03.575Z,10.10
2019-02-21T22:39:32.874Z,10.00
2019-02-21T22:42:02.266Z,10.00
2019-02-21T22:44:31.582Z,9.90
2019-02-21T22:47:01.116Z,9.90
2019-02-21T22:49:30.548Z,9.90
2019-02-21T22:52:00.054Z,9.90
2019-02-21T22:54:29.458Z,9.90
2019-02-21T22:56:58.709Z,9.90
2019-02-21T22:59:28.225Z,9.90
2019-02-21T23:01:58.690Z,9.90
2019-02-21T23:04:59.265Z,9.80
2019-02-21T23:07:51.425Z,9.60
2019-02-21T23:10:20.838Z,9.50
2019-02-21T23:12:51.237Z,9.40
2019-02-21T23:15:20.594Z,9.40
2019-02-21T23:17:50.057Z,9.40
2019-02-21T23:20:21.914Z,9.40
2019-02-21T23:22:53.459Z,9.30
2019-02-21T23:25:22.932Z,9.30
2019-02-21T23:27:52.197Z,9.20
2019-02-21T23:30:21.726Z,9.20
2019-02-21T23:32:51.247Z,9.20
2019-02-21T23:35:21.302Z,9.10
2019-02-21T23:37:50.888Z,9.10
2019-02-21T23:40:21.918Z,9.20
2019-02-21T23:42:51.301Z,9.20
2019-02-21T23:45:20.675Z,9.20
2019-02-21T23:47:50.258Z,9.20
2019-02-21T23:50:19.521Z,9.20
2019-02-21T23:52:48.901Z,9.20
2019-02-21T23:55:18.656Z,9.20
2019-02-21T23:57:47.976Z,9.30
